Startpagina
METAR-TAF:

METAR-TAF

Vliegvelden :

Luchthaven Belgrado Nikola Tesla

Belgrado, Servië

breedte: 44-49N, lengte: 020-17E, hoogte: 96 m

Actueel weer

Dit bericht is 17 minuten geleden gemaakt, om 11:30 UTC
Weinig wind
Temperatuur 7°C
Vochtigheid 70%
Druk 1028 hPa
Zicht 10 km of meer
geen wolken onder 1500 m en geen cumulonimbus

METAR: LYBE 161130Z 00000KT CAVOK 07/02 Q1028 NOSIG

Tijdstip: 12:47 (11:47 UTC)

Verwachting

Dit bericht is 47 minuten geleden gemaakt, om 11:00 UTC
Verwachting geldig van 16 om 12 UTC tot 17 om 12 UTC
Wind 7 kt uit het noordoosten
Zicht 10 km of meer
geen wolken onder 1500 m en geen cumulonimbus
Wijzigt naar
van 17 om 09 UTC tot 17 om 11 UTC
Wind 12 kt uit het oostzuidoosten

TAF: LYBE 161100Z 1612/1712 05007KT CAVOK TX10/1612Z TN01/1705Z BECMG 1709/1711 11012KT

Waarnemingen en weersverwachtingen van meer dan 4000 vliegvelden (METAR en TAF).

De beschikbare stations zijn de gele en rode punten op de kaart.

Ga met uw muis naar het station om de naam te zien.

Klik dan om waarnemingen en weersverwachtingen te zien.

kaart wijzigen: klik op de groene knoppen met een zwart kruis om in te zoomen, op de groene knop met een streepje om uit te zoomen of op de groene pijlen voor aangrenzende kaarten.


METAR-TAF: